createdAt,value
2022-12-13T00:01:52.696Z,11.80
2022-12-13T00:05:12.170Z,11.20
2022-12-13T00:08:28.577Z,11.55
2022-12-13T00:11:45.321Z,11.20
2022-12-13T00:15:01.860Z,10.40
2022-12-13T00:18:18.158Z,11.03
2022-12-13T00:21:38.185Z,10.68
2022-12-13T00:24:54.514Z,11.38
2022-12-13T00:28:11.046Z,11.55
2022-12-13T00:34:51.642Z,10.90
2022-12-13T00:38:08.784Z,10.63
2022-12-13T00:41:27.637Z,10.38
2022-12-13T00:44:44.083Z,10.38
2022-12-13T00:48:00.239Z,10.53
2022-12-13T00:51:18.917Z,9.58
2022-12-13T00:54:35.143Z,9.70
2022-12-13T00:57:51.411Z,9.45
2022-12-13T01:01:16.634Z,9.83
2022-12-13T01:04:33.045Z,9.83
2022-12-13T01:07:51.704Z,8.68
2022-12-13T01:11:08.605Z,9.53
2022-12-13T01:14:26.119Z,9.60
2022-12-13T01:17:44.297Z,9.78
2022-12-13T01:21:11.628Z,9.88
2022-12-13T01:24:28.334Z,9.35
2022-12-13T01:27:44.660Z,10.00
2022-12-13T01:31:10.008Z,10.35
2022-12-13T01:34:32.814Z,10.28
2022-12-13T01:37:49.912Z,10.48
2022-12-13T01:41:17.052Z,11.15
2022-12-13T01:45:09.782Z,12.03
2022-12-13T01:48:30.382Z,13.35
2022-12-13T01:51:52.603Z,14.28
2022-12-13T01:55:12.551Z,14.63
2022-12-13T01:58:30.134Z,16.43
2022-12-13T02:01:47.836Z,16.38
2022-12-13T02:05:12.232Z,16.40
2022-12-13T02:08:35.745Z,16.13
2022-12-13T02:11:51.995Z,16.13
2022-12-13T02:15:13.128Z,14.90
2022-12-13T02:18:41.302Z,14.90
2022-12-13T02:22:04.991Z,15.05
2022-12-13T02:25:48.052Z,13.73
2022-12-13T02:29:30.790Z,14.15
2022-12-13T02:32:44.438Z,13.05
2022-12-13T02:36:12.718Z,13.80
2022-12-13T02:39:34.349Z,13.00
2022-12-13T02:42:56.391Z,13.83
2022-12-13T02:46:15.497Z,13.15
2022-12-13T02:49:36.649Z,12.85
2022-12-13T02:52:54.048Z,12.93
2022-12-13T02:56:10.535Z,13.75
2022-12-13T02:59:27.018Z,14.05
2022-12-13T03:02:55.937Z,15.00
2022-12-13T03:06:37.829Z,14.30
2022-12-13T03:10:01.061Z,15.08
2022-12-13T03:13:36.713Z,15.08
2022-12-13T03:16:55.542Z,15.45
2022-12-13T03:20:22.717Z,15.05
2022-12-13T03:23:32.641Z,15.65
2022-12-13T03:26:49.977Z,15.50
2022-12-13T03:30:06.867Z,15.25
2022-12-13T03:33:23.364Z,14.88
2022-12-13T03:36:40.475Z,14.53
2022-12-13T03:39:57.001Z,15.28
2022-12-13T03:43:14.526Z,14.70
2022-12-13T03:46:33.198Z,15.48
2022-12-13T03:49:54.217Z,15.65
2022-12-13T03:53:10.132Z,16.68
2022-12-13T03:56:30.163Z,16.45
2022-12-13T03:59:46.841Z,16.48
2022-12-13T04:03:03.339Z,15.68
2022-12-13T04:06:22.399Z,16.43
2022-12-13T04:09:39.053Z,17.70
2022-12-13T04:13:10.172Z,17.88
2022-12-13T04:16:27.196Z,17.55
2022-12-13T04:19:43.528Z,17.60
2022-12-13T04:22:59.763Z,17.83
2022-12-13T04:26:16.236Z,17.90
2022-12-13T04:29:34.266Z,18.20
2022-12-13T04:32:50.279Z,17.78
2022-12-13T04:36:06.447Z,17.13
2022-12-13T04:39:23.067Z,17.25
2022-12-13T04:42:40.405Z,17.45
2022-12-13T04:45:57.222Z,17.33
2022-12-13T04:49:13.774Z,17.93
2022-12-13T04:52:32.801Z,17.75
2022-12-13T04:55:49.846Z,16.58
2022-12-13T04:59:06.674Z,16.98
2022-12-13T05:02:23.514Z,16.73
2022-12-13T05:05:43.019Z,16.18
2022-12-13T05:09:00.746Z,16.90
2022-12-13T05:12:22.437Z,16.33
2022-12-13T05:18:50.458Z,16.50
2022-12-13T05:22:06.684Z,16.38
2022-12-13T05:25:23.425Z,15.35
2022-12-13T05:28:39.862Z,16.28
2022-12-13T05:31:57.330Z,15.55
2022-12-13T05:35:22.325Z,16.23
2022-12-13T05:38:34.347Z,15.75
2022-12-13T05:41:50.578Z,15.80
2022-12-13T05:45:06.607Z,15.60
2022-12-13T05:48:25.327Z,16.13
2022-12-13T05:51:41.504Z,15.73
2022-12-13T05:55:01.526Z,16.05
2022-12-13T05:58:23.050Z,15.48
2022-12-13T06:01:43.833Z,14.65
2022-12-13T06:04:57.064Z,14.88
2022-12-13T06:08:23.889Z,14.98
2022-12-13T06:11:32.658Z,13.35
2022-12-13T06:14:49.262Z,13.43
2022-12-13T06:18:07.012Z,13.65
2022-12-13T06:21:23.212Z,12.85
2022-12-13T06:24:40.557Z,12.48
2022-12-13T06:27:57.550Z,12.18
2022-12-13T06:31:16.113Z,12.07
2022-12-13T06:34:32.366Z,12.33
2022-12-13T06:37:52.307Z,12.85
2022-12-13T06:41:19.603Z,12.53
2022-12-13T06:44:40.450Z,12.95
2022-12-13T06:47:56.575Z,12.25
2022-12-13T06:51:22.892Z,12.13
2022-12-13T06:54:35.404Z,12.60
2022-12-13T06:57:53.274Z,13.33
2022-12-13T07:01:24.025Z,12.68
2022-12-13T07:04:33.133Z,13.60
2022-12-13T07:07:49.288Z,12.10
2022-12-13T07:11:06.099Z,12.83
2022-12-13T07:14:24.423Z,13.10
2022-12-13T07:17:40.945Z,13.10
2022-12-13T07:20:58.403Z,12.50
2022-12-13T07:24:18.025Z,12.30
2022-12-13T07:30:49.154Z,12.80
2022-12-13T07:34:05.904Z,12.13
2022-12-13T07:37:30.483Z,12.95
2022-12-13T07:40:44.116Z,13.15
2022-12-13T07:44:02.479Z,12.65
2022-12-13T07:47:25.995Z,12.38
2022-12-13T07:50:44.171Z,12.38
2022-12-13T07:54:00.412Z,12.10
2022-12-13T07:57:17.079Z,12.93
2022-12-13T08:00:33.942Z,12.00
2022-12-13T08:03:52.564Z,11.85
2022-12-13T08:07:09.625Z,12.85
2022-12-13T08:10:31.983Z,12.20
2022-12-13T08:13:49.998Z,11.33
2022-12-13T08:17:08.889Z,12.13
2022-12-13T08:20:25.603Z,12.53
2022-12-13T08:23:43.167Z,10.43
2022-12-13T08:27:01.902Z,9.78
2022-12-13T08:30:22.789Z,9.73
2022-12-13T08:33:41.299Z,9.88
2022-12-13T08:37:02.499Z,8.67
2022-12-13T08:40:22.655Z,7.90
2022-12-13T08:43:39.406Z,8.30
2022-12-13T08:46:55.749Z,9.13
2022-12-13T08:50:13.527Z,10.98
2022-12-13T08:53:31.769Z,9.33
2022-12-13T08:56:48.476Z,9.83
2022-12-13T09:00:05.213Z,10.00
2022-12-13T09:03:24.090Z,9.80
2022-12-13T09:06:40.546Z,10.03
2022-12-13T09:09:56.924Z,10.00
2022-12-13T09:13:13.535Z,9.85
2022-12-13T09:16:35.948Z,10.13
2022-12-13T09:19:49.956Z,9.90
2022-12-13T09:23:13.798Z,10.85
2022-12-13T09:26:28.601Z,10.98
2022-12-13T09:29:45.673Z,10.15
2022-12-13T09:33:28.536Z,11.13
2022-12-13T09:36:25.882Z,11.20
2022-12-13T09:39:42.133Z,11.80
2022-12-13T09:43:13.304Z,11.98
2022-12-13T09:46:34.854Z,11.65
2022-12-13T09:49:54.344Z,11.43
2022-12-13T09:53:21.370Z,11.60
2022-12-13T09:56:35.029Z,13.83
2022-12-13T09:59:54.723Z,168.28
2022-12-13T10:03:21.288Z,59.53
2022-12-13T10:06:38.852Z,23.90
2022-12-13T10:09:55.973Z,16.95
2022-12-13T10:13:22.672Z,12.88
2022-12-13T10:16:48.060Z,11.85
2022-12-13T10:20:05.549Z,10.18
2022-12-13T10:23:42.631Z,9.48
2022-12-13T10:26:47.427Z,9.75
2022-12-13T10:30:18.142Z,9.75
2022-12-13T10:33:39.247Z,10.23
2022-12-13T10:36:59.537Z,10.58
2022-12-13T10:40:33.430Z,11.70
2022-12-13T10:43:50.877Z,12.28
2022-12-13T10:47:26.995Z,12.38
2022-12-13T10:50:44.320Z,11.73
2022-12-13T10:54:07.382Z,11.80
2022-12-13T10:57:28.401Z,13.10
2022-12-13T11:00:50.084Z,12.35
2022-12-13T11:04:11.698Z,13.15
2022-12-13T11:07:37.235Z,14.03
2022-12-13T11:10:58.119Z,13.25
2022-12-13T11:14:32.248Z,12.23
2022-12-13T11:17:48.350Z,10.75
2022-12-13T11:21:08.806Z,11.85
2022-12-13T11:24:31.842Z,12.40
2022-12-13T11:28:01.779Z,11.73
2022-12-13T11:31:25.718Z,12.20
2022-12-13T11:34:47.941Z,10.75
2022-12-13T11:38:12.096Z,9.65
2022-12-13T11:41:33.718Z,10.25
2022-12-13T11:44:58.310Z,10.63
2022-12-13T11:48:19.392Z,10.55
2022-12-13T11:51:40.706Z,9.90
2022-12-13T11:55:18.580Z,10.58
2022-12-13T12:02:17.038Z,12.73
2022-12-13T12:05:40.752Z,10.65
2022-12-13T12:09:03.123Z,10.28
2022-12-13T12:12:25.836Z,11.10
2022-12-13T12:15:49.965Z,11.55
2022-12-13T12:19:08.156Z,11.65
2022-12-13T12:22:39.280Z,11.98
2022-12-13T12:25:59.817Z,11.58
2022-12-13T12:29:39.403Z,11.53
2022-12-13T12:33:06.434Z,11.20
2022-12-13T12:36:50.276Z,11.70
2022-12-13T12:40:52.254Z,11.15
2022-12-13T12:43:52.549Z,11.35
2022-12-13T12:47:48.920Z,11.30
2022-12-13T12:50:52.456Z,11.48
2022-12-13T12:54:20.692Z,11.43
2022-12-13T12:57:45.871Z,12.00
2022-12-13T13:01:15.647Z,11.20
2022-12-13T13:04:39.982Z,11.00
2022-12-13T13:08:01.868Z,10.65
2022-12-13T13:11:25.615Z,11.00
2022-12-13T13:14:44.907Z,11.40
2022-12-13T13:18:01.545Z,11.03
2022-12-13T13:21:53.577Z,39.30
2022-12-13T13:25:53.947Z,19.15
2022-12-13T13:28:54.901Z,13.63
2022-12-13T13:32:35.401Z,12.28
2022-12-13T13:35:59.760Z,12.48
2022-12-13T13:39:23.238Z,13.33
2022-12-13T13:42:41.282Z,13.55
2022-12-13T13:46:18.518Z,13.20
2022-12-13T13:49:35.319Z,13.10
2022-12-13T13:53:00.958Z,14.15
2022-12-13T13:56:41.244Z,14.53
2022-12-13T14:00:23.072Z,15.65
2022-12-13T14:04:17.351Z,15.58
2022-12-13T14:08:11.672Z,16.55
2022-12-13T14:12:03.585Z,15.53
2022-12-13T14:16:07.733Z,17.35
2022-12-13T14:20:13.207Z,16.88
2022-12-13T14:23:46.954Z,18.08
2022-12-13T14:27:30.590Z,16.85
2022-12-13T14:30:57.036Z,18.25
2022-12-13T14:34:12.624Z,19.45
2022-12-13T14:37:38.536Z,17.00
2022-12-13T14:41:01.447Z,18.63
2022-12-13T14:44:34.675Z,19.25
2022-12-13T14:47:52.587Z,18.98
2022-12-13T14:51:10.009Z,111.35
2022-12-13T14:54:30.942Z,26.65
2022-12-13T15:01:01.762Z,18.73
2022-12-13T15:04:34.950Z,17.68
2022-12-13T15:07:53.478Z,19.23
2022-12-13T15:11:10.138Z,19.13
2022-12-13T15:14:31.483Z,20.03
2022-12-13T15:17:48.857Z,19.85
2022-12-13T15:21:09.981Z,19.63
2022-12-13T15:24:34.261Z,19.35
2022-12-13T15:27:57.576Z,18.80
2022-12-13T15:31:16.527Z,19.15
2022-12-13T15:34:44.991Z,19.10
2022-12-13T15:38:05.214Z,19.30
2022-12-13T15:41:31.414Z,19.13
2022-12-13T15:44:55.185Z,19.83
2022-12-13T15:48:22.298Z,21.30
2022-12-13T15:51:38.614Z,21.70
2022-12-13T15:55:04.957Z,21.73
2022-12-13T15:58:37.494Z,20.68
2022-12-13T16:01:58.867Z,20.65
2022-12-13T16:05:31.856Z,21.18
2022-12-13T16:08:50.805Z,21.50
2022-12-13T16:12:11.545Z,23.15
2022-12-13T16:15:31.041Z,21.58
2022-12-13T16:18:59.320Z,21.65
2022-12-13T16:22:15.973Z,20.98
2022-12-13T16:25:32.801Z,20.58
2022-12-13T16:28:49.311Z,22.80
2022-12-13T16:32:09.134Z,18.90
2022-12-13T16:35:26.523Z,19.58
2022-12-13T16:38:44.726Z,19.30
2022-12-13T16:42:01.568Z,19.05
2022-12-13T16:48:43.156Z,19.20
2022-12-13T16:52:00.419Z,17.88
2022-12-13T16:55:22.549Z,18.10
2022-12-13T16:58:38.856Z,17.58
2022-12-13T17:01:58.871Z,16.98
2022-12-13T17:05:22.628Z,17.55
2022-12-13T17:08:39.561Z,23.88
2022-12-13T17:11:57.251Z,18.38
2022-12-13T17:15:16.502Z,16.13
2022-12-13T17:18:33.659Z,16.80
2022-12-13T17:21:50.525Z,16.08
2022-12-13T17:25:07.022Z,15.23
2022-12-13T17:28:23.274Z,15.20
2022-12-13T17:31:40.269Z,15.03
2022-12-13T17:34:58.661Z,15.55
2022-12-13T17:38:15.581Z,16.05
2022-12-13T17:41:35.319Z,15.50
2022-12-13T17:44:55.850Z,16.10
2022-12-13T17:48:12.844Z,15.38
2022-12-13T17:51:29.435Z,17.10
2022-12-13T17:54:47.401Z,15.40
2022-12-13T17:58:07.153Z,15.45
2022-12-13T18:01:29.815Z,16.28
2022-12-13T18:04:47.334Z,15.18
2022-12-13T18:08:03.681Z,14.28
2022-12-13T18:11:32.900Z,15.60
2022-12-13T18:14:44.833Z,18.28
2022-12-13T18:18:12.122Z,21.28
2022-12-13T18:21:27.742Z,19.43
2022-12-13T18:24:44.089Z,15.78
2022-12-13T18:28:03.698Z,15.40
2022-12-13T18:31:23.232Z,20.25
2022-12-13T18:34:40.087Z,20.70
2022-12-13T18:38:00.232Z,22.98
2022-12-13T18:41:19.833Z,24.55
2022-12-13T18:44:39.233Z,22.95
2022-12-13T18:51:19.194Z,24.40
2022-12-13T18:54:37.703Z,24.80
2022-12-13T18:57:54.096Z,24.88
2022-12-13T19:01:12.343Z,25.88
2022-12-13T19:04:28.902Z,25.15
2022-12-13T19:07:53.821Z,26.43
2022-12-13T19:11:12.701Z,25.00
2022-12-13T19:14:29.798Z,26.50
2022-12-13T19:17:47.363Z,24.93
2022-12-13T19:21:04.655Z,24.98
2022-12-13T19:24:23.753Z,25.58
2022-12-13T19:27:45.604Z,25.80
2022-12-13T19:31:05.826Z,28.68
2022-12-13T19:34:24.090Z,24.70
2022-12-13T19:37:42.022Z,24.88
2022-12-13T19:44:19.222Z,23.33
2022-12-13T19:47:39.005Z,22.85
2022-12-13T19:50:58.281Z,23.25
2022-12-13T19:54:16.083Z,21.45
2022-12-13T19:57:33.730Z,20.20
2022-12-13T20:00:50.954Z,19.40
2022-12-13T20:04:07.719Z,16.70
2022-12-13T20:07:26.914Z,16.48
2022-12-13T20:10:46.278Z,17.30
2022-12-13T20:14:05.122Z,16.00
2022-12-13T20:17:21.959Z,14.83
2022-12-13T20:21:09.709Z,15.38
2022-12-13T20:23:58.805Z,19.75
2022-12-13T20:27:15.605Z,24.13
2022-12-13T20:30:33.773Z,25.68
2022-12-13T20:33:51.288Z,30.90
2022-12-13T20:37:08.715Z,32.55
2022-12-13T20:40:26.379Z,33.05
2022-12-13T20:43:44.429Z,33.50
2022-12-13T20:47:04.446Z,32.58
2022-12-13T20:50:21.724Z,33.00
2022-12-13T20:53:43.115Z,32.95
2022-12-13T20:57:05.903Z,33.73
2022-12-13T21:00:27.655Z,34.35
2022-12-13T21:03:45.275Z,32.73
2022-12-13T21:07:05.855Z,33.70
2022-12-13T21:10:22.347Z,33.43
2022-12-13T21:13:39.274Z,36.63
2022-12-13T21:16:57.691Z,35.78
2022-12-13T21:20:15.717Z,36.58
2022-12-13T21:23:32.612Z,35.00
2022-12-13T21:26:49.282Z,35.53
2022-12-13T21:30:05.738Z,36.90
2022-12-13T21:33:22.214Z,37.83
2022-12-13T21:36:41.913Z,40.63
2022-12-13T21:39:59.156Z,39.45
2022-12-13T21:43:19.391Z,38.53
2022-12-13T21:47:10.369Z,45.33
2022-12-13T21:49:55.592Z,52.23
2022-12-13T21:53:11.947Z,51.18
2022-12-13T21:56:47.657Z,47.50
2022-12-13T22:00:03.950Z,47.33
2022-12-13T22:03:22.088Z,46.33
2022-12-13T22:06:38.459Z,49.23
2022-12-13T22:09:56.659Z,45.58
2022-12-13T22:13:13.272Z,43.55
2022-12-13T22:16:29.783Z,42.40
2022-12-13T22:19:48.644Z,44.40
2022-12-13T22:23:05.921Z,49.45
2022-12-13T22:26:22.432Z,47.23
2022-12-13T22:29:40.402Z,45.05
2022-12-13T22:32:59.732Z,46.23
2022-12-13T22:36:21.100Z,43.33
2022-12-13T22:39:37.698Z,43.90
2022-12-13T22:42:54.017Z,43.23
2022-12-13T22:46:13.580Z,45.53
2022-12-13T22:49:30.211Z,43.35
2022-12-13T22:52:47.606Z,44.03
2022-12-13T22:56:13.577Z,42.78
2022-12-13T22:59:29.817Z,42.58
2022-12-13T23:02:46.377Z,43.43
2022-12-13T23:06:06.424Z,45.35
2022-12-13T23:09:24.594Z,45.60
2022-12-13T23:12:55.046Z,42.30
2022-12-13T23:16:15.241Z,43.48
2022-12-13T23:19:41.549Z,42.13
2022-12-13T23:22:50.429Z,43.00
2022-12-13T23:26:15.480Z,44.15
2022-12-13T23:29:33.898Z,42.15
2022-12-13T23:32:50.203Z,41.10
2022-12-13T23:36:10.601Z,38.80
2022-12-13T23:39:27.070Z,42.35
2022-12-13T23:42:43.894Z,41.80
2022-12-13T23:46:00.330Z,43.15
2022-12-13T23:49:17.962Z,41.55
2022-12-13T23:52:34.501Z,41.83
2022-12-13T23:55:51.302Z,42.98
2022-12-13T23:59:07.639Z,42.20
